Time;durP1;ratioP1;P1;durP2;ratioP2;P2;SDS_P1;SDS_P2;PMS_P1;PMS_P2;Temp;Humidity;BMP_temperature;BMP_pressure;BME280_temperature;BME280_humidity;BME280_pressure;Samples;Min_cycle;Max_cycle;Signal;HPM_P1;HPM_P2
2022/11/06 00:00:45;;;;;;;1.55;0.77;;;;;;;19.18;47.11;101404.16;16136495;19;130610;-34
2022/11/06 00:11:51;;;;;;;1.50;0.52;;;;;;;19.13;47.28;101399.34;16134955;19;129395;-33
2022/11/06 00:17:13;;;;;;;2.15;0.60;;;;;;;19.10;47.21;101394.25;16135923;19;129390;-34
2022/11/06 00:22:36;;;;;;;1.60;0.70;;;;;;;19.08;47.47;101383.38;16134268;19;129480;-34
2022/11/06 00:27:58;;;;;;;1.00;0.50;;;;;;;19.07;47.16;101384.50;16134952;19;129204;-34
2022/11/06 00:33:19;;;;;;;1.40;0.60;;;;;;;19.05;47.50;101389.44;16134662;19;130585;-34
2022/11/06 00:38:41;;;;;;;2.60;0.45;;;;;;;19.03;47.39;101377.72;16133985;19;129482;-34
2022/11/06 00:44:03;;;;;;;0.80;0.57;;;;;;;19.02;47.77;101381.59;16133710;19;129623;-34
2022/11/06 00:49:26;;;;;;;1.55;0.50;;;;;;;19.01;47.37;101390.16;16131427;19;129199;-33
2022/11/06 00:54:48;;;;;;;1.45;0.60;;;;;;;18.98;47.34;101382.31;16132252;19;130111;-43
2022/11/06 01:00:10;;;;;;;1.50;0.60;;;;;;;18.97;47.41;101388.94;16134392;19;129679;-42
2022/11/06 01:05:32;;;;;;;1.00;0.50;;;;;;;18.95;47.86;101382.78;16131432;19;129389;-42
2022/11/06 01:10:54;;;;;;;1.35;0.60;;;;;;;18.94;47.75;101381.94;16133853;19;129490;-42
2022/11/06 01:16:16;;;;;;;0.88;0.40;;;;;;;18.93;47.39;101363.63;16129966;19;129726;-42
2022/11/06 01:21:41;;;;;;;1.10;0.50;;;;;;;18.93;47.42;101371.94;16130903;19;129466;-43
2022/11/06 01:27:03;;;;;;;1.92;0.60;;;;;;;18.90;47.49;101375.16;16132478;19;129309;-42
2022/11/06 01:32:45;;;;;;;2.65;0.60;;;;;;;18.88;47.46;101378.19;16132117;19;130229;-43
2022/11/06 01:38:06;;;;;;;1.90;0.60;;;;;;;18.87;47.87;101345.13;16131529;19;130483;-40
2022/11/06 01:43:43;;;;;;;1.15;0.50;;;;;;;18.88;47.68;101346.84;16127588;19;130768;-43
2022/11/06 01:49:12;;;;;;;1.15;0.55;;;;;;;18.85;47.62;101345.38;16129086;19;129735;-42
2022/11/06 01:54:37;;;;;;;1.98;0.55;;;;;;;18.84;47.56;101337.28;16126037;19;129534;-43
2022/11/06 01:59:59;;;;;;;2.03;0.75;;;;;;;18.82;47.35;101329.22;16128295;19;129212;-43
2022/11/06 02:05:22;;;;;;;1.15;0.60;;;;;;;18.82;47.38;101331.16;16123920;19;129886;-43
2022/11/06 02:10:44;;;;;;;4.15;0.70;;;;;;;18.81;47.38;101323.94;16127677;19;129479;-43
2022/11/06 02:16:18;;;;;;;2.58;0.70;;;;;;;18.82;47.59;101311.75;16125133;19;130141;-40
2022/11/06 02:21:40;;;;;;;1.60;0.50;;;;;;;18.76;47.71;101300.53;16127731;19;130108;-47
2022/11/06 02:27:12;;;;;;;1.48;0.63;;;;;;;18.79;47.55;101313.06;16127173;19;129346;-43
2022/11/06 02:32:57;;;;;;;1.27;0.40;;;;;;;18.77;47.81;101310.53;16122646;19;130196;-43
2022/11/06 02:38:24;;;;;;;3.30;0.60;;;;;;;18.73;47.31;101306.53;16129101;19;131203;-43
2022/11/06 02:43:52;;;;;;;2.33;0.50;;;;;;;18.74;47.54;101318.50;16127275;19;129386;-43
2022/11/06 02:49:22;;;;;;;0.43;0.32;;;;;;;18.72;47.78;101306.78;16125051;19;130346;-43
2022/11/06 02:54:54;;;;;;;1.30;0.50;;;;;;;18.71;47.31;101300.38;16126359;19;133521;-43
2022/11/06 03:00:16;;;;;;;2.97;0.43;;;;;;;18.69;47.41;101288.72;16124510;19;129260;-43
2022/11/06 03:05:47;;;;;;;0.93;0.50;;;;;;;18.71;47.70;101286.53;16125303;19;129716;-42
2022/11/06 03:11:21;;;;;;;1.23;0.35;;;;;;;18.71;47.25;101278.22;16126203;19;129488;-43
2022/11/06 03:17:12;;;;;;;0.93;0.50;;;;;;;18.69;47.22;101274.00;16123607;19;130129;-42
2022/11/06 03:22:46;;;;;;;1.17;0.43;;;;;;;18.68;47.41;101275.94;16123397;19;129423;-40
2022/11/06 03:28:24;;;;;;;0.85;0.40;;;;;;;18.66;47.60;101260.63;16126775;19;129354;-43
2022/11/06 03:33:57;;;;;;;0.80;0.47;;;;;;;18.65;47.61;101251.47;16123249;19;129440;-43
2022/11/06 03:39:29;;;;;;;0.90;0.50;;;;;;;18.64;47.58;101244.25;16121774;19;129569;-42
2022/11/06 03:44:56;;;;;;;2.42;0.70;;;;;;;18.64;47.16;101246.19;16120531;19;129674;-43
2022/11/06 03:50:31;;;;;;;2.63;0.70;;;;;;;18.63;47.12;101230.63;16123210;19;129354;-43
2022/11/06 03:56:01;;;;;;;0.93;0.52;;;;;;;18.60;47.02;101216.16;16122317;19;130005;-43
2022/11/06 04:01:27;;;;;;;1.90;0.60;;;;;;;18.60;47.04;101212.53;16122371;19;129491;-43
2022/11/06 04:06:55;;;;;;;0.73;0.40;;;;;;;18.58;47.18;101207.25;16125356;19;130057;-42
2022/11/06 04:18:02;;;;;;;1.27;0.47;;;;;;;18.56;46.99;101203.88;16121201;19;129651;-43
2022/11/06 04:23:37;;;;;;;1.27;0.43;;;;;;;18.56;47.01;101175.31;16120307;19;129615;-43
2022/11/06 04:29:06;;;;;;;1.35;0.60;;;;;;;18.56;47.27;101169.78;16122379;19;129661;-43
2022/11/06 04:34:34;;;;;;;1.17;0.45;;;;;;;18.55;47.10;101187.50;16134117;19;130141;-43
2022/11/06 04:40:08;;;;;;;0.95;0.50;;;;;;;18.55;47.24;101173.63;16133909;19;129305;-43
2022/11/06 04:45:35;;;;;;;2.42;0.60;;;;;;;18.54;47.38;101194.13;16133739;19;129411;-42
2022/11/06 04:51:01;;;;;;;1.23;0.47;;;;;;;18.52;47.40;101174.97;16135257;19;129589;-43
2022/11/06 04:56:29;;;;;;;0.80;0.40;;;;;;;18.51;47.19;101155.81;16135133;19;130476;-43
2022/11/06 05:01:55;;;;;;;1.50;0.50;;;;;;;18.50;47.12;101149.44;16134932;19;129444;-42
2022/11/06 05:07:17;;;;;;;0.90;0.38;;;;;;;18.50;47.00;101154.09;16131988;19;129770;-43
2022/11/06 05:12:38;;;;;;;1.63;0.47;;;;;;;18.49;47.25;101149.66;16132265;19;129726;-42
2022/11/06 05:18:00;;;;;;;1.23;0.40;;;;;;;18.49;47.22;101147.75;16130224;19;129464;-43
2022/11/06 05:23:22;;;;;;;0.90;0.50;;;;;;;18.48;47.03;101145.19;16131114;19;129696;-42
2022/11/06 05:28:44;;;;;;;1.95;0.47;;;;;;;18.47;46.69;101144.34;16130241;19;131465;-41
2022/11/06 05:34:06;;;;;;;0.82;0.40;;;;;;;18.45;47.11;101139.06;16128002;19;129409;-43
2022/11/06 05:39:27;;;;;;;0.93;0.35;;;;;;;18.45;47.05;101136.31;16126802;19;129918;-43
2022/11/06 05:44:49;;;;;;;0.82;0.47;;;;;;;18.45;46.50;101121.59;16132654;19;129440;-43
2022/11/06 05:50:11;;;;;;;1.33;0.60;;;;;;;18.43;46.51;101110.75;16127241;19;129851;-43
2022/11/06 05:55:33;;;;;;;1.23;0.40;;;;;;;18.43;46.71;101109.91;16126210;19;130226;-43
2022/11/06 06:00:56;;;;;;;1.60;0.57;;;;;;;18.41;46.75;101118.47;16127982;19;129459;-43
2022/11/06 06:06:19;;;;;;;1.40;0.52;;;;;;;18.40;46.60;101097.38;16127489;19;129234;-42
2022/11/06 06:11:40;;;;;;;0.50;0.40;;;;;;;18.40;46.54;101108.47;16131177;19;129592;-43
2022/11/06 06:17:02;;;;;;;1.25;0.40;;;;;;;18.40;46.23;101102.91;16126399;19;130280;-42
2022/11/06 06:22:24;;;;;;;1.70;0.65;;;;;;;18.38;46.33;101110.59;16125928;19;132954;-43
2022/11/06 06:27:45;;;;;;;1.40;0.47;;;;;;;18.37;46.61;101105.31;16124697;19;130063;-43
2022/11/06 06:33:07;;;;;;;1.08;0.40;;;;;;;18.36;46.38;101106.38;16126054;19;129305;-42
2022/11/06 06:38:29;;;;;;;6.60;0.70;;;;;;;18.36;45.94;101096.13;16124705;19;129336;-42
2022/11/06 06:43:51;;;;;;;5.05;1.23;;;;;;;18.36;45.24;101103.63;16123466;19;130027;-43
2022/11/06 06:49:12;;;;;;;5.90;0.93;;;;;;;18.52;44.86;101096.53;16126171;19;130087;-34
2022/11/06 06:54:34;;;;;;;2.25;0.90;;;;;;;18.81;44.17;101091.09;16121689;19;129799;-33
2022/11/06 06:59:56;;;;;;;3.53;0.90;;;;;;;19.14;43.82;101100.66;16124137;19;129859;-33
2022/11/06 07:05:18;;;;;;;6.70;0.80;;;;;;;19.38;43.64;101107.84;16120671;19;129598;-34
2022/11/06 07:10:40;;;;;;;2.83;0.70;;;;;;;19.49;43.04;101105.25;16123843;19;130318;-34
2022/11/06 07:16:08;;;;;;;5.47;0.60;;;;;;;19.55;43.33;101089.56;16124970;19;130129;-43
2022/11/06 07:21:29;;;;;;;5.85;0.50;;;;;;;19.56;43.00;101078.22;16122338;19;129727;-43
2022/11/06 07:26:51;;;;;;;3.65;1.08;;;;;;;19.55;43.53;101082.09;16125265;19;131360;-42
2022/11/06 07:32:13;;;;;;;3.90;0.75;;;;;;;19.51;43.57;101080.88;16122227;19;129580;-43
2022/11/06 07:37:35;;;;;;;4.72;0.60;;;;;;;19.45;43.37;101074.41;16123174;19;129335;-43
2022/11/06 07:43:03;;;;;;;4.53;0.60;;;;;;;19.40;43.82;101067.91;16124164;19;129622;-43
2022/11/06 07:48:24;;;;;;;4.90;1.00;;;;;;;19.32;43.49;101067.19;16120778;19;130980;-43
2022/11/06 07:53:46;;;;;;;11.43;0.82;;;;;;;19.23;43.70;101068.69;16120811;19;130065;-42
2022/11/06 07:59:08;;;;;;;4.28;1.02;;;;;;;19.16;43.21;101056.88;16119308;19;129156;-42
2022/11/06 08:04:30;;;;;;;2.28;0.80;;;;;;;19.10;43.27;101049.53;16122891;19;129804;-43
2022/11/06 08:09:51;;;;;;;8.55;0.90;;;;;;;19.05;42.79;101040.03;16132908;19;129186;-33
2022/11/06 08:15:13;;;;;;;13.75;1.30;;;;;;;19.01;42.81;101038.84;16133151;19;129442;-34
2022/11/06 08:20:36;;;;;;;5.45;0.85;;;;;;;18.99;42.94;101029.09;16131362;19;128806;-33
2022/11/06 08:26:01;;;;;;;6.68;1.00;;;;;;;18.94;42.96;101027.06;16130010;19;128947;-33
2022/11/06 08:31:24;;;;;;;6.53;1.07;;;;;;;18.89;43.08;101024.19;16133595;19;129393;-33
2022/11/06 08:36:48;;;;;;;2.85;0.80;;;;;;;18.87;43.17;101026.34;16132333;19;130251;-33
2022/11/06 08:42:11;;;;;;;3.17;1.00;;;;;;;18.84;43.36;101021.28;16131720;19;129843;-33
2022/11/06 08:47:32;;;;;;;2.80;0.88;;;;;;;18.84;42.89;101011.06;16132876;19;129345;-33
2022/11/06 08:52:59;;;;;;;5.55;1.10;;;;;;;18.90;42.66;101009.22;16132355;19;129309;-33
2022/11/06 08:58:21;;;;;;;2.88;0.70;;;;;;;18.97;42.31;100998.81;16131311;19;129811;-33
2022/11/06 09:03:43;;;;;;;5.20;1.05;;;;;;;19.06;42.51;100985.41;16135262;19;129461;-33
2022/11/06 09:09:04;;;;;;;8.30;0.93;;;;;;;19.11;42.40;100981.91;16131697;19;133446;-34
2022/11/06 09:14:27;;;;;;;6.57;0.82;;;;;;;19.18;42.54;100971.50;16128740;19;129429;-33
2022/11/06 09:19:51;;;;;;;3.47;0.73;;;;;;;19.25;42.37;100975.00;16129004;19;129436;-33
2022/11/06 09:25:14;;;;;;;5.30;1.00;;;;;;;19.29;42.18;100970.63;16133475;19;130238;-33
2022/11/06 09:30:36;;;;;;;3.40;0.80;;;;;;;19.34;42.39;100965.16;16132402;19;129429;-33
2022/11/06 09:35:58;;;;;;;4.85;0.80;;;;;;;19.36;42.15;100951.06;16128654;19;129252;-37
2022/11/06 09:41:38;;;;;;;3.13;0.50;;;;;;;19.41;42.16;100953.06;16127890;19;131009;-33
2022/11/06 09:47:06;;;;;;;6.60;0.68;;;;;;;19.41;42.59;100944.75;16127763;19;130169;-33
2022/11/06 09:52:37;;;;;;;2.85;0.55;;;;;;;19.43;42.14;100945.34;16125448;19;129236;-35
2022/11/06 09:58:04;;;;;;;6.05;0.73;;;;;;;19.42;42.18;100932.56;16128384;19;129624;-33
2022/11/06 10:03:39;;;;;;;2.25;0.68;;;;;;;19.43;42.51;100925.94;16127172;19;130677;-33
2022/11/06 10:09:05;;;;;;;1.47;0.60;;;;;;;19.43;42.57;100923.16;16126285;19;129394;-37
2022/11/06 10:14:35;;;;;;;;;;;;;;;19.40;42.49;100915.34;16125297;19;129420;-33
2022/11/06 10:20:17;;;;;;;1.85;0.50;;;;;;;19.44;42.46;100894.31;16126730;19;129403;-33
2022/11/06 10:26:13;;;;;;;3.55;0.70;;;;;;;19.43;42.38;100887.91;16122056;19;129542;-33
2022/11/06 10:31:44;;;;;;;2.75;0.70;;;;;;;19.39;42.02;100897.81;16124838;19;129408;-34
2022/11/06 10:37:34;;;;;;;2.10;0.70;;;;;;;19.34;42.16;100881.94;16124222;19;130685;-33
2022/11/06 10:43:40;;;;;;;3.13;0.70;;;;;;;19.29;41.96;100873.56;16124822;19;129562;-33
2022/11/06 10:49:15;;;;;;;7.75;1.20;;;;;;;19.26;41.92;100885.16;16114970;19;129106;-33
2022/11/06 10:54:42;;;;;;;14.57;1.67;;;;;;;19.14;41.84;100871.31;16116177;19;130385;-33
2022/11/06 11:00:05;;;;;;;10.57;1.60;;;;;;;19.08;41.19;100862.06;16116525;19;134336;-33
2022/11/06 11:05:40;;;;;;;11.68;2.08;;;;;;;19.11;41.61;100846.03;16114737;19;129200;-33
2022/11/06 11:11:24;;;;;;;8.57;1.40;;;;;;;19.11;41.72;100843.25;16114566;19;129172;-33
2022/11/06 11:16:46;;;;;;;13.20;1.48;;;;;;;19.11;41.55;100826.63;16117039;19;129561;-33
2022/11/06 11:22:19;;;;;;;10.52;1.30;;;;;;;19.12;42.08;100818.06;16123799;19;129403;-33
2022/11/06 11:27:44;;;;;;;5.30;1.27;;;;;;;19.10;42.44;100802.75;16122175;19;129273;-33
2022/11/06 11:33:12;;;;;;;6.43;1.00;;;;;;;19.11;42.69;100804.44;16120659;19;130597;-33
2022/11/06 11:38:36;;;;;;;3.60;1.17;;;;;;;19.12;42.74;100792.25;16124923;19;129610;-33
2022/11/06 11:44:13;;;;;;;4.90;0.95;;;;;;;19.13;42.68;100775.38;16136787;19;129351;-33
2022/11/06 11:49:34;;;;;;;4.25;1.25;;;;;;;19.13;43.01;100763.44;16139137;19;129651;-33
2022/11/06 11:54:56;;;;;;;6.13;1.00;;;;;;;19.17;42.86;100747.97;16134924;19;130882;-33
2022/11/06 12:00:20;;;;;;;3.47;0.80;;;;;;;19.22;43.20;100762.78;16133176;19;129549;-33
2022/11/06 12:05:42;;;;;;;5.75;0.90;;;;;;;19.25;43.10;100750.34;16136081;19;129527;-33
2022/11/06 12:11:05;;;;;;;3.70;0.60;;;;;;;19.28;43.50;100738.75;16134734;19;129813;-33
2022/11/06 12:16:27;;;;;;;4.85;0.98;;;;;;;19.30;43.30;100727.38;16134251;19;129937;-33
2022/11/06 12:21:57;;;;;;;4.47;0.93;;;;;;;19.33;43.31;100736.03;16132394;19;130160;-33
2022/11/06 12:27:28;;;;;;;3.28;1.00;;;;;;;19.36;43.36;100729.97;16128528;19;133507;-33
2022/11/06 12:32:59;;;;;;;8.20;1.00;;;;;;;19.38;43.18;100733.31;16132062;19;129641;-33
2022/11/06 12:38:30;;;;;;;1.73;0.60;;;;;;;19.42;43.44;100735.59;16131503;19;130412;-33
2022/11/06 12:43:55;;;;;;;2.92;0.50;;;;;;;19.41;43.51;100736.69;16131254;19;129471;-33
2022/11/06 12:49:46;;;;;;;3.20;0.75;;;;;;;19.43;43.12;100740.06;16129956;19;129249;-33
2022/11/06 12:55:26;;;;;;;3.28;0.70;;;;;;;19.44;43.34;100731.47;16131483;19;129159;-33
2022/11/06 13:01:08;;;;;;;3.22;0.88;;;;;;;19.42;43.40;100722.56;16130643;19;130556;-33
2022/11/06 13:06:38;;;;;;;2.65;0.60;;;;;;;19.41;43.37;100720.88;16131445;19;129114;-33
2022/11/06 13:12:17;;;;;;;6.10;0.60;;;;;;;19.43;43.29;100715.09;16129247;19;129144;-35
2022/11/06 13:17:56;;;;;;;3.75;0.75;;;;;;;19.45;43.47;100713.72;16129265;19;134835;-33
2022/11/06 13:23:26;;;;;;;1.27;0.50;;;;;;;19.44;43.29;100709.28;16129149;19;129503;-33
2022/11/06 13:28:55;;;;;;;2.22;0.60;;;;;;;19.44;43.58;100706.50;16129886;19;129549;-33
2022/11/06 13:34:39;;;;;;;1.83;0.57;;;;;;;19.45;43.77;100710.94;16129632;19;129362;-34
2022/11/06 13:40:29;;;;;;;4.47;0.60;;;;;;;19.44;43.46;100720.38;16129866;19;130015;-33
2022/11/06 13:46:20;;;;;;;2.55;0.50;;;;;;;19.46;43.60;100711.78;16126945;19;130189;-34
2022/11/06 13:52:35;;;;;;;5.50;0.60;;;;;;;19.42;43.70;100707.84;16125303;19;129991;-33
2022/11/06 13:58:03;;;;;;;1.48;0.55;;;;;;;19.43;43.91;100698.44;16116255;19;129365;-33
2022/11/06 14:03:53;;;;;;;2.70;0.82;;;;;;;19.44;43.70;100683.47;16115929;19;132033;-33
2022/11/06 14:09:19;;;;;;;3.10;0.60;;;;;;;19.43;43.89;100676.25;16114470;19;130099;-33
2022/11/06 14:14:41;;;;;;;3.80;0.80;;;;;;;19.43;43.94;100667.94;16117767;19;129584;-33
2022/11/06 14:20:26;;;;;;;5.13;0.50;;;;;;;19.43;44.05;100646.56;16118248;19;129723;-33
2022/11/06 14:26:08;;;;;;;3.42;0.55;;;;;;;19.45;43.78;100637.97;16118721;19;129475;-33
2022/11/06 14:32:12;;;;;;;1.33;0.40;;;;;;;19.43;44.40;100613.25;16122153;19;129660;-33
2022/11/06 14:37:33;;;;;;;1.25;0.47;;;;;;;19.43;44.38;100598.56;16121625;19;130211;-33
2022/11/06 14:42:55;;;;;;;2.45;0.40;;;;;;;19.43;44.15;100584.69;16127802;19;130453;-33
2022/11/06 14:48:47;;;;;;;2.58;0.50;;;;;;;19.43;44.54;100593.84;16122063;19;130621;-33
2022/11/06 14:54:23;;;;;;;0.57;0.35;;;;;;;19.45;44.17;100593.56;16120406;19;129758;-32
2022/11/06 14:59:47;;;;;;;1.90;0.70;;;;;;;19.42;44.41;100592.16;16122661;19;129897;-33
2022/11/06 15:05:18;;;;;;;4.07;0.60;;;;;;;19.43;44.39;100585.53;16121648;19;129814;-33
2022/11/06 15:10:42;;;;;;;6.95;0.77;;;;;;;19.40;43.96;100585.22;16124170;19;130124;-33
2022/11/06 15:16:09;;;;;;;7.85;0.90;;;;;;;19.36;43.24;100580.19;16118430;19;130500;-33
2022/11/06 15:21:41;;;;;;;5.05;0.80;;;;;;;19.45;43.45;100563.91;16114831;19;129743;-33
2022/11/06 15:27:16;;;;;;;4.47;0.80;;;;;;;19.61;43.04;100548.25;16120829;19;129531;-33
2022/11/06 15:32:41;;;;;;;6.38;0.93;;;;;;;19.76;43.06;100535.63;16119877;19;129396;-33
2022/11/06 15:38:24;;;;;;;1.48;0.43;;;;;;;19.89;43.08;100526.00;16123487;19;129878;-33
2022/11/06 15:43:49;;;;;;;10.88;1.00;;;;;;;19.92;43.60;100518.00;16123373;19;129522;-33
2022/11/06 15:49:17;;;;;;;4.67;0.73;;;;;;;19.93;43.88;100505.81;16120846;19;129452;-33
2022/11/06 15:54:40;;;;;;;3.17;0.65;;;;;;;19.88;44.17;100505.75;16121363;19;130368;-33
2022/11/06 16:00:08;;;;;;;3.80;1.08;;;;;;;19.82;44.51;100492.94;16120530;19;136840;-33
2022/11/06 16:05:33;;;;;;;4.10;0.70;;;;;;;19.77;44.36;100501.22;16118941;19;131380;-33
2022/11/06 16:10:56;;;;;;;7.00;0.80;;;;;;;19.71;44.60;100492.03;16120880;19;130783;-33
2022/11/06 16:16:30;;;;;;;4.65;0.70;;;;;;;19.66;45.00;100494.75;16120008;19;129480;-33
2022/11/06 16:22:15;;;;;;;5.95;0.65;;;;;;;19.59;44.72;100481.06;16117791;19;129894;-33
2022/11/06 16:27:40;;;;;;;1.88;0.40;;;;;;;19.52;45.14;100461.88;16130639;19;129495;-33
2022/11/06 16:33:03;;;;;;;5.43;0.80;;;;;;;19.45;45.22;100460.41;16131952;19;129801;-33
2022/11/06 16:38:36;;;;;;;4.32;0.80;;;;;;;19.41;45.74;100487.03;16134022;19;130152;-33
2022/11/06 16:44:41;;;;;;;6.20;0.70;;;;;;;19.34;45.98;100476.13;16131588;19;129512;-33
2022/11/06 16:50:23;;;;;;;3.65;0.68;;;;;;;19.33;45.64;100480.84;16123151;19;129487;-33
2022/11/06 16:56:03;;;;;;;14.27;4.97;;;;;;;19.36;45.60;100494.19;16127785;19;131586;-33
2022/11/06 17:01:25;;;;;;;23.15;9.45;;;;;;;19.43;45.43;100501.47;16126019;19;130672;-33
2022/11/06 17:06:49;;;;;;;16.95;7.15;;;;;;;19.57;45.25;100491.59;16123751;19;129702;-33
2022/11/06 17:12:10;;;;;;;21.42;7.85;;;;;;;19.71;45.36;100486.47;16122991;19;130069;-33
2022/11/06 17:17:32;;;;;;;20.02;8.43;;;;;;;19.83;45.31;100495.47;16119234;19;129561;-33
2022/11/06 17:23:00;;;;;;;26.80;12.30;;;;;;;19.95;45.25;100509.13;16130161;19;130192;-33
2022/11/06 17:28:22;;;;;;;37.42;16.90;;;;;;;20.06;45.29;100512.03;16129621;19;130581;-33
2022/11/06 17:33:44;;;;;;;43.72;24.27;;;;;;;20.08;45.64;100504.25;16131229;19;129452;-33
2022/11/06 17:39:06;;;;;;;56.22;29.65;;;;;;;20.07;45.97;100505.38;16127289;19;130258;-33
2022/11/06 17:44:27;;;;;;;60.67;35.65;;;;;;;20.01;45.68;100501.72;16127257;19;129423;-33
2022/11/06 17:49:49;;;;;;;88.68;50.25;;;;;;;19.96;46.10;100510.81;16128590;19;130308;-33
2022/11/06 17:55:11;;;;;;;90.10;54.10;;;;;;;19.89;46.06;100499.09;16125892;19;129500;-33
2022/11/06 18:00:33;;;;;;;101.70;63.50;;;;;;;19.86;46.42;100487.69;16124166;19;130344;-33
2022/11/06 18:05:54;;;;;;;106.22;67.32;;;;;;;19.80;46.31;100461.84;16125811;19;130204;-33
2022/11/06 18:11:16;;;;;;;105.43;70.38;;;;;;;19.74;46.90;100474.84;16125160;19;129351;-33
2022/11/06 18:16:39;;;;;;;107.43;71.88;;;;;;;19.70;46.93;100493.13;16125516;19;129380;-33
2022/11/06 18:22:04;;;;;;;112.28;71.90;;;;;;;19.74;46.75;100499.81;16125100;19;130402;-33
2022/11/06 18:27:27;;;;;;;111.85;75.20;;;;;;;19.81;46.81;100507.94;16124606;19;129349;-33
2022/11/06 18:32:49;;;;;;;110.75;70.90;;;;;;;19.89;46.44;100504.66;16126194;19;129399;-33
2022/11/06 18:38:14;;;;;;;96.55;65.68;;;;;;;19.96;46.46;100510.81;16126110;19;129476;-33
2022/11/06 18:43:37;;;;;;;98.15;62.03;;;;;;;19.97;46.06;100512.50;16120917;19;130212;-40
2022/11/06 18:48:58;;;;;;;90.85;61.30;;;;;;;19.98;46.28;100496.69;16124342;19;129703;-39
2022/11/06 18:54:20;;;;;;;82.50;54.75;;;;;;;20.06;46.33;100487.88;16128436;19;129869;-42
2022/11/06 18:59:42;;;;;;;75.95;49.97;;;;;;;20.32;45.86;100490.81;16126961;19;129333;-42
2022/11/06 19:05:04;;;;;;;61.38;43.65;;;;;;;20.70;45.61;100508.25;16125608;19;130003;-41
2022/11/06 19:10:28;;;;;;;64.28;41.40;;;;;;;21.12;45.08;100514.84;16126305;19;129796;-41
2022/11/06 19:15:49;;;;;;;53.50;35.22;;;;;;;21.50;44.85;100523.88;16121609;19;129232;-40
2022/11/06 19:21:12;;;;;;;50.70;32.65;;;;;;;21.73;44.64;100535.59;16116867;19;129901;-40
2022/11/06 19:26:34;;;;;;;53.10;28.63;;;;;;;21.79;44.15;100545.59;16120949;19;129430;-40
2022/11/06 19:32:00;;;;;;;59.55;26.17;;;;;;;21.75;44.70;100546.44;16122260;19;129407;-37
2022/11/06 19:37:22;;;;;;;51.80;23.08;;;;;;;21.68;44.84;100552.28;16120553;19;130405;-43
2022/11/06 19:42:44;;;;;;;38.72;23.25;;;;;;;21.56;45.17;100562.84;16121597;19;129514;-42
2022/11/06 19:48:06;;;;;;;36.53;19.90;;;;;;;21.43;45.58;100559.44;16119387;19;130362;-42
2022/11/06 19:53:28;;;;;;;35.60;18.02;;;;;;;21.31;45.70;100572.75;16118826;19;129196;-41
2022/11/06 19:58:50;;;;;;;29.90;16.48;;;;;;;21.19;46.19;100575.78;16125731;19;129358;-42
2022/11/06 20:04:12;;;;;;;27.40;15.18;;;;;;;21.04;46.36;100582.97;16137135;19;130339;-40
2022/11/06 20:09:35;;;;;;;30.50;13.63;;;;;;;20.94;46.21;100568.16;16137024;19;129587;-42
2022/11/06 20:14:56;;;;;;;18.13;10.48;;;;;;;20.82;46.47;100577.56;16136123;19;130803;-41
2022/11/06 20:20:18;;;;;;;21.95;9.35;;;;;;;20.69;46.09;100583.56;16135369;19;129353;-41
2022/11/06 20:25:40;;;;;;;22.00;8.55;;;;;;;20.56;45.55;100580.16;16135579;19;129685;-43
2022/11/06 20:31:10;;;;;;;20.25;8.02;;;;;;;20.46;45.65;100588.41;16135045;19;129961;-38
2022/11/06 20:36:34;;;;;;;17.90;7.50;;;;;;;20.34;45.72;100594.19;16132259;19;130687;-39
2022/11/06 20:41:56;;;;;;;16.58;6.35;;;;;;;20.28;46.12;100606.34;16132618;19;129516;-43
2022/11/06 20:47:17;;;;;;;16.05;5.70;;;;;;;20.20;45.89;100606.84;16132788;19;129459;-42
2022/11/06 20:52:39;;;;;;;12.15;4.95;;;;;;;20.11;46.28;100610.13;16132522;19;130335;-42
2022/11/06 20:58:01;;;;;;;11.85;5.07;;;;;;;20.05;46.17;100615.88;16133539;19;129981;-41
2022/11/06 21:03:22;;;;;;;6.57;3.75;;;;;;;19.98;46.54;100624.41;16130583;19;130403;-40
2022/11/06 21:08:45;;;;;;;13.15;3.92;;;;;;;19.91;46.56;100629.31;16136004;19;135166;-40
2022/11/06 21:14:07;;;;;;;9.65;3.53;;;;;;;19.87;46.85;100639.28;16127893;19;130265;-40
2022/11/06 21:19:28;;;;;;;7.43;3.13;;;;;;;19.80;46.83;100643.09;16130155;19;129570;-39
2022/11/06 21:24:50;;;;;;;10.88;3.50;;;;;;;19.76;46.58;100652.22;16129278;19;130519;-41
2022/11/06 21:30:12;;;;;;;5.72;2.85;;;;;;;19.72;46.81;100648.25;16127957;19;129477;-40
2022/11/06 21:35:33;;;;;;;5.95;2.50;;;;;;;19.66;47.05;100659.31;16129258;19;129557;-42
2022/11/06 21:40:55;;;;;;;4.88;2.33;;;;;;;19.63;46.96;100662.63;16131247;19;130485;-42
2022/11/06 21:46:18;;;;;;;4.88;2.38;;;;;;;19.58;46.80;100664.50;16133429;19;129485;-41
2022/11/06 21:51:40;;;;;;;4.68;2.20;;;;;;;19.55;46.98;100676.97;16130460;19;129610;-42
2022/11/06 21:57:02;;;;;;;3.08;1.70;;;;;;;19.52;47.08;100669.16;16129241;19;129797;-41
2022/11/06 22:02:23;;;;;;;4.85;1.50;;;;;;;19.48;47.17;100679.06;16129314;19;130074;-40
2022/11/06 22:07:45;;;;;;;4.88;1.75;;;;;;;19.46;47.04;100684.03;16131054;19;129801;-41
2022/11/06 22:13:07;;;;;;;3.05;1.40;;;;;;;19.42;47.31;100675.38;16126974;19;129690;-39
2022/11/06 22:18:29;;;;;;;3.00;1.25;;;;;;;19.40;47.46;100679.53;16126124;19;130489;-42
2022/11/06 22:23:54;;;;;;;3.42;1.20;;;;;;;19.37;47.54;100670.63;16129721;19;129539;-42
2022/11/06 22:29:16;;;;;;;2.20;1.10;;;;;;;19.31;47.51;100677.22;16135308;19;130297;-40
2022/11/06 22:34:37;;;;;;;2.55;1.20;;;;;;;19.30;47.54;100672.75;16131521;19;129202;-42
2022/11/06 22:39:59;;;;;;;2.10;1.00;;;;;;;19.28;47.25;100669.41;16128515;19;129816;-39
2022/11/06 22:45:21;;;;;;;1.10;0.75;;;;;;;19.25;47.66;100678.22;16126203;19;130362;-40
2022/11/06 22:50:42;;;;;;;2.22;0.70;;;;;;;19.24;47.32;100676.53;16127547;19;129973;-41
2022/11/06 22:56:05;;;;;;;2.55;1.10;;;;;;;19.21;47.79;100693.69;16126696;19;129764;-41
2022/11/06 23:01:29;;;;;;;2.15;1.00;;;;;;;19.20;47.38;100683.69;16126298;19;129110;-42
2022/11/06 23:06:50;;;;;;;1.02;0.65;;;;;;;19.19;47.70;100701.41;16125270;19;129396;-43
2022/11/06 23:12:14;;;;;;;2.95;0.95;;;;;;;19.16;47.58;100701.91;16125210;19;129688;-39
2022/11/06 23:17:36;;;;;;;1.58;0.60;;;;;;;19.14;47.67;100698.56;16127108;19;129884;-41
2022/11/06 23:22:59;;;;;;;1.58;0.70;;;;;;;19.12;47.60;100703.53;16122867;19;130201;-42
2022/11/06 23:28:21;;;;;;;1.33;0.60;;;;;;;19.11;47.86;100710.16;16125727;19;129347;-41
2022/11/06 23:33:42;;;;;;;1.40;0.65;;;;;;;19.09;47.88;100707.66;16123980;19;129721;-40
2022/11/06 23:39:04;;;;;;;2.35;0.70;;;;;;;19.06;47.96;100711.78;16124411;19;130676;-42
2022/11/06 23:50:06;;;;;;;2.58;0.60;;;;;;;19.04;47.76;100722.28;16125861;19;128922;-38
2022/11/06 23:55:28;;;;;;;0.82;0.50;;;;;;;19.02;48.08;100718.91;16122987;19;129458;-42
